• Join FlightAware (Why Join?)
  • Login
  • US Flag 
Gobble Gobble! 
07:16AM EST


 

Airport Tracker/Info


-or-


 

Live Flight TrackerFlight Track Log ✈ N606FT ✈ 30-Aug-2013 ✈ KCOI - KOBE

Flight Track Log - Related Links

Times and Time Zones

All times are in EDT time to prevent confusion due to time zone crossing. See the N606FT flight status page for this flight to view local times or setup timezone preferences in your user account.

Time Position Orientation Groundspeed Altitude Reporting Facility
EDT Latitude Longitude Course Direction KTS MPH feet Rate Location/Type
07:46AM 28.0667 -80.7667 180° South 103 119 3,600  Level Orlando TRACON
07:47AM 28.0500 -80.7667 180° South 107 123 3,600  Level Orlando TRACON
07:48AM 28.0000 -80.7667 180° South 105 121 3,600  Level Orlando TRACON
07:49AM 27.9833 -80.7667 180° South 99 114 3,700 -60 Climbing Orlando TRACON
07:51AM 27.9133 -80.7714 183° South 99 114 3,500 -120 Descending Miami Center
07:52AM 27.8864 -80.7681 174° South 104 120 3,500  Level Miami Center
07:53AM 27.8611 -80.7719 188° South 104 120 3,500  Level Miami Center
07:54AM 27.8319 -80.7758 187° South 104 120 3,500  Level Miami Center
07:55AM 27.8028 -80.7747 178° South 104 120 3,600  Climbing Miami Center
07:56AM 27.7733 -80.7761 182° South 104 120 3,600 -60 Level Miami Center
07:57AM 27.7400 -80.7772 182° South 104 120 3,500 -60 Descending Miami Center
07:58AM 27.7108 -80.7717 170° South 104 120 3,500  Level Miami Center
07:59AM 27.6839 -80.7658 169° South 104 120 3,500  Level Miami Center
08:00AM 27.6547 -80.7625 174° South 104 120 3,600  Climbing Miami Center
08:01AM 27.6297 -80.7642 183° South 104 120 3,500 -60 Descending Miami Center
08:02AM 27.6006 -80.7631 178° South 104 120 3,500  Level Miami Center
08:03AM 27.5694 -80.7597 175° South 104 120 3,500  Level Miami Center
08:04AM 27.5422 -80.7589 178° South 104 120 3,500  Level Miami Center
08:05AM 27.5131 -80.7603 182° South 104 120 3,500  Level Miami Center
08:06AM 27.4878 -80.7639 187° South 104 120 3,500  Level Miami Center
08:07AM 27.4606 -80.7653 183° South 104 120 3,600 60 Climbing Miami Center
08:08AM 27.4311 -80.7761 198° South 104 120 3,700 -60 Climbing Miami Center
08:51AM 27.6881 -80.7731 359° North 106 122 3,500 -60 Descending Miami Center
08:52AM 27.7172 -80.7742 358° North 106 122 3,600  Climbing Miami Center
08:53AM 27.7464 -80.7728 North 101 116 3,500 -120 Descending Miami Center
08:54AM 27.7736 -80.7714 North 101 116 3,400  Descending Miami Center
08:56AM 27.8333 -80.7667 North 104 120 3,600  Climbing Orlando TRACON
08:57AM 27.8667 -80.7667 360° North 108 124 3,500 -60 Descending Orlando TRACON
08:58AM 27.9000 -80.7667 360° North 107 123 3,500  Level Orlando TRACON
08:59AM 27.9167 -80.7667 360° North 103 119 3,600 60 Climbing Orlando TRACON
09:00AM 27.9500 -80.7667 360° North 100 115 3,700  Climbing Orlando TRACON
09:01AM 27.9833 -80.7667 360° North 103 119 3,700 -60 Level Orlando TRACON
09:02AM 28.0167 -80.7667 360° North 104 120 3,600 -120 Descending Orlando TRACON
09:03AM 28.0333 -80.7667 360° North 110 127 3,500  Descending Orlando TRACON
09:04AM 28.0667 -80.7667 360° North 99 114 3,600  Climbing Orlando TRACON
09:05AM 28.1000 -80.7667 360° North 105 121 3,600  Level Orlando TRACON
09:06AM 28.1333 -80.7667 360° North 105 121 3,700 60 Climbing Orlando TRACON